Time;durP1;ratioP1;P1;durP2;ratioP2;P2;SDS_P1;SDS_P2;PMS_P1;PMS_P2;Temp;Humidity;BMP_temperature;BMP_pressure;BME280_temperature;BME280_humidity;BME280_pressure;Samples;Min_cycle;Max_cycle;Signal;HPM_P1;HPM_P2
2022/12/15 00:40:42;;;;;;;20.83;9.65;;;3.80;69.00;;;;;;2583274;53;21802;-73
2022/12/15 00:43:10;;;;;;;19.15;10.07;;;3.80;68.90;;;;;;2583560;53;20967;-71
2022/12/15 00:48:22;;;;;;;19.87;9.75;;;3.80;68.80;;;;;;2344062;53;20979;-72
2022/12/15 00:50:53;;;;;;;19.70;9.98;;;3.70;68.70;;;;;;2337845;53;20907;-72
2022/12/15 01:20:59;;;;;;;19.20;10.23;;;3.60;68.60;;;;;;2337914;54;21573;-75
2022/12/15 01:23:26;;;;;;;21.77;10.38;;;3.60;68.60;;;;;;2396768;53;20960;-76
2022/12/15 01:25:52;;;;;;;19.70;9.63;;;3.60;68.70;;;;;;2338183;54;21860;-73
2022/12/15 01:28:19;;;;;;;19.77;10.45;;;3.50;68.50;;;;;;2337637;54;20943;-74
2022/12/15 01:30:46;;;;;;;24.77;11.20;;;3.50;68.60;;;;;;2337068;54;20931;-73
2022/12/15 01:33:13;;;;;;;21.55;11.35;;;3.50;68.50;;;;;;2498321;52;21869;-72
2022/12/15 01:35:39;;;;;;;19.50;9.52;;;3.50;68.50;;;;;;2424951;52;21416;-73
2022/12/15 01:38:05;;;;;;;21.55;10.98;;;3.50;68.50;;;;;;2338100;54;21227;-75
2022/12/15 01:40:44;;;;;;;23.90;11.30;;;3.50;68.50;;;;;;2337557;54;21475;-72
2022/12/15 01:43:19;;;;;;;23.83;12.13;;;3.50;68.60;;;;;;2338026;53;20917;-74
2022/12/15 01:47:38;;;;;;;22.37;11.20;;;3.50;68.50;;;;;;2414605;53;21626;-73
2022/12/15 01:50:08;;;;;;;22.92;10.15;;;3.50;68.10;;;;;;2321802;55;21607;-73
2022/12/15 01:52:35;;;;;;;21.67;10.05;;;3.50;68.50;;;;;;2339088;54;21408;-73
2022/12/15 01:55:04;;;;;;;23.12;11.82;;;3.40;68.50;;;;;;2341318;54;20965;-73
2022/12/15 01:57:30;;;;;;;20.37;10.75;;;3.40;68.40;;;;;;2339304;53;20880;-75
2022/12/15 01:59:59;;;;;;;22.17;10.85;;;3.40;68.40;;;;;;2337813;54;21018;-75
2022/12/15 02:02:26;;;;;;;22.23;10.63;;;3.40;68.40;;;;;;2339694;53;21011;-73
2022/12/15 02:04:55;;;;;;;23.60;11.77;;;3.40;68.40;;;;;;2352646;53;20994;-73
2022/12/15 02:07:22;;;;;;;21.27;11.15;;;3.40;68.40;;;;;;2395676;53;20931;-73
2022/12/15 02:09:49;;;;;;;19.87;10.10;;;3.40;68.20;;;;;;2337988;54;20999;-72
2022/12/15 02:13:28;;;;;;;21.70;10.65;;;3.30;68.10;;;;;;2337793;54;20983;-72
2022/12/15 02:16:00;;;;;;;21.30;10.48;;;3.30;68.00;;;;;;2338342;54;20923;-73
2022/12/15 02:18:34;;;;;;;21.23;10.88;;;3.30;68.60;;;;;;2337769;54;21046;-76
2022/12/15 02:21:17;;;;;;;22.20;10.98;;;3.30;67.90;;;;;;2338151;53;20959;-73
2022/12/15 02:24:10;;;;;;;23.15;11.82;;;3.20;67.70;;;;;;2360130;53;20915;-72
2022/12/15 02:27:14;;;;;;;22.15;10.35;;;3.20;67.60;;;;;;2337885;54;20940;-72
2022/12/15 02:31:49;;;;;;;22.30;10.38;;;3.10;67.50;;;;;;2367173;53;20927;-76
2022/12/15 02:34:39;;;;;;;19.65;9.82;;;3.10;67.40;;;;;;2416550;53;20902;-75
2022/12/15 02:37:51;;;;;;;20.98;10.93;;;3.10;67.70;;;;;;2559837;53;20928;-74
2022/12/15 02:40:17;;;;;;;21.48;9.73;;;3.00;67.50;;;;;;2419870;53;21001;-73
2022/12/15 02:47:26;;;;;;;23.67;11.10;;;3.00;67.80;;;;;;2337821;57;20947;-75
2022/12/15 02:51:48;;;;;;;21.00;10.75;;;2.90;67.90;;;;;;2349713;53;21064;-75
2022/12/15 02:55:14;;;;;;;21.17;9.38;;;2.90;67.50;;;;;;2338377;54;20938;-73
2022/12/15 02:58:13;;;;;;;19.83;9.05;;;2.90;67.70;;;;;;2338515;54;20875;-74
2022/12/15 03:00:58;;;;;;;21.80;9.55;;;2.90;67.90;;;;;;2344955;53;21844;-73
2022/12/15 03:03:26;;;;;;;19.30;10.10;;;2.80;67.90;;;;;;2338077;54;20923;-73
2022/12/15 03:05:54;;;;;;;18.67;8.70;;;2.80;68.00;;;;;;2338347;54;21687;-74
2022/12/15 03:08:20;;;;;;;21.52;10.57;;;2.80;68.00;;;;;;2338790;54;20932;-74
2022/12/15 03:10:48;;;;;;;20.37;10.90;;;2.80;68.10;;;;;;2338027;54;20947;-74
2022/12/15 03:13:15;;;;;;;20.77;10.85;;;2.80;68.10;;;;;;2344211;53;21028;-75
2022/12/15 03:19:15;;;;;;;21.95;10.82;;;2.80;68.00;;;;;;2337809;54;22095;-76
2022/12/15 03:25:09;;;;;;;21.98;9.45;;;2.70;67.90;;;;;;2583394;53;21480;-74
2022/12/15 03:27:36;;;;;;;18.58;9.65;;;2.70;68.00;;;;;;2338519;53;21678;-75
2022/12/15 03:30:04;;;;;;;25.45;10.45;;;2.70;68.10;;;;;;2398312;53;20944;-76
2022/12/15 03:32:30;;;;;;;20.33;9.95;;;2.70;68.20;;;;;;2439669;53;21030;-72
2022/12/15 03:34:57;;;;;;;21.52;10.45;;;2.70;68.30;;;;;;2351452;53;20915;-73
2022/12/15 03:37:23;;;;;;;21.20;10.20;;;2.70;68.30;;;;;;2337932;54;21408;-74
2022/12/15 03:39:53;;;;;;;21.45;10.45;;;2.70;68.30;;;;;;2371803;53;20923;-73
2022/12/15 03:42:47;;;;;;;18.48;9.52;;;2.70;68.30;;;;;;2507371;53;21831;-75
2022/12/15 03:45:23;;;;;;;21.75;10.05;;;2.70;68.40;;;;;;2507520;53;20931;-72
2022/12/15 03:47:50;;;;;;;19.17;9.23;;;2.70;68.40;;;;;;2337724;54;20914;-75
2022/12/15 03:50:18;;;;;;;21.25;10.70;;;2.70;68.50;;;;;;2337852;54;20967;-73
2022/12/15 03:52:48;;;;;;;20.00;10.18;;;2.70;68.50;;;;;;2337883;54;20910;-73
2022/12/15 03:55:15;;;;;;;18.75;9.45;;;2.70;68.50;;;;;;2338190;54;20884;-75
2022/12/15 03:57:41;;;;;;;17.92;9.77;;;2.70;68.50;;;;;;2337657;54;20911;-75
2022/12/15 04:00:09;;;;;;;20.17;10.55;;;2.70;68.40;;;;;;2583748;53;21015;-74
2022/12/15 04:02:37;;;;;;;24.15;11.00;;;2.70;68.40;;;;;;2322632;55;20995;-73
2022/12/15 04:05:04;;;;;;;21.00;10.18;;;2.70;68.40;;;;;;2343499;53;20904;-73
2022/12/15 04:07:31;;;;;;;20.88;9.75;;;2.70;68.40;;;;;;2382443;53;20999;-73
2022/12/15 04:09:59;;;;;;;20.23;9.88;;;2.70;68.40;;;;;;2338181;54;20923;-74
2022/12/15 04:12:26;;;;;;;21.05;9.50;;;2.70;68.40;;;;;;2337554;54;20903;-72
2022/12/15 04:14:52;;;;;;;21.62;10.88;;;2.70;68.40;;;;;;2337089;54;20963;-74
2022/12/15 04:17:19;;;;;;;19.40;9.98;;;2.70;69.20;;;;;;2583284;53;20986;-71
2022/12/15 04:22:30;;;;;;;22.02;9.85;;;2.70;68.50;;;;;;2337867;54;20962;-74
2022/12/15 05:33:39;;;;;;;23.35;12.32;;;2.60;68.20;;;;;;2337188;54;20892;-75
2022/12/15 05:36:06;;;;;;;24.73;12.68;;;2.60;68.20;;;;;;2582712;53;20903;-72
2022/12/15 05:38:33;;;;;;;27.92;12.57;;;2.60;68.20;;;;;;2337094;54;21030;-73
2022/12/15 05:40:59;;;;;;;24.77;11.68;;;2.60;68.90;;;;;;2582830;53;20919;-76
2022/12/15 05:43:28;;;;;;;24.63;12.98;;;2.60;68.20;;;;;;2337411;54;20971;-77
2022/12/15 05:45:54;;;;;;;24.58;12.45;;;2.60;68.20;;;;;;2465344;53;20915;-75
2022/12/15 05:48:21;;;;;;;27.87;12.05;;;2.60;68.20;;;;;;2337638;54;21819;-74
2022/12/15 05:50:47;;;;;;;25.12;12.48;;;2.60;69.00;;;;;;2582162;53;20982;-71
2022/12/15 05:53:14;;;;;;;23.83;12.27;;;2.60;68.40;;;;;;2337107;54;21448;-76
2022/12/15 05:55:40;;;;;;;24.87;13.30;;;2.60;68.40;;;;;;2337615;54;21019;-75
2022/12/15 05:58:07;;;;;;;26.60;12.23;;;2.60;68.40;;;;;;2582390;53;20903;-72
2022/12/15 06:00:34;;;;;;;27.58;13.18;;;2.60;68.40;;;;;;2582432;53;20969;-72
2022/12/15 06:03:01;;;;;;;23.02;11.65;;;2.60;68.70;;;;;;2433453;53;20903;-77
2022/12/15 06:05:28;;;;;;;27.92;13.57;;;2.60;68.50;;;;;;2582664;53;20926;-73
2022/12/15 06:07:55;;;;;;;30.52;13.80;;;2.60;68.40;;;;;;2465891;53;21825;-74
2022/12/15 06:10:24;;;;;;;25.30;11.40;;;2.60;68.40;;;;;;2338073;54;20911;-71
2022/12/15 06:12:51;;;;;;;23.25;11.27;;;2.60;69.00;;;;;;2337057;54;20947;-72
2022/12/15 06:15:17;;;;;;;26.37;12.07;;;2.60;68.30;;;;;;2337269;54;20904;-73
2022/12/15 06:17:44;;;;;;;24.17;12.15;;;2.60;68.30;;;;;;2337749;54;20931;-76
2022/12/15 06:20:11;;;;;;;32.47;14.10;;;2.60;68.20;;;;;;2439698;53;20966;-74
2022/12/15 06:22:38;;;;;;;22.05;11.52;;;2.60;68.20;;;;;;2337596;54;20911;-74
2022/12/15 06:25:11;;;;;;;25.52;11.48;;;2.60;68.10;;;;;;2583153;53;21003;-72
2022/12/15 06:27:37;;;;;;;25.48;12.37;;;2.60;68.10;;;;;;2343818;53;20919;-74
2022/12/15 06:30:09;;;;;;;28.33;13.55;;;2.60;68.20;;;;;;2343402;53;21053;-74
2022/12/15 06:32:36;;;;;;;29.02;12.37;;;2.60;68.20;;;;;;2341171;54;20903;-72
2022/12/15 06:35:02;;;;;;;24.80;12.63;;;2.60;68.30;;;;;;2346379;53;20994;-73
2022/12/15 06:37:29;;;;;;;30.23;13.13;;;2.60;68.40;;;;;;2582700;53;20943;-74
2022/12/15 06:39:55;;;;;;;27.73;13.23;;;2.60;68.30;;;;;;2568661;53;20990;-73
2022/12/15 06:42:25;;;;;;;27.50;13.30;;;2.60;68.20;;;;;;2337959;54;20997;-75
2022/12/15 06:44:52;;;;;;;25.60;12.68;;;2.60;68.20;;;;;;2337191;54;20919;-74
2022/12/15 06:47:18;;;;;;;25.30;12.05;;;2.60;68.20;;;;;;2336821;54;20931;-76
2022/12/15 06:49:47;;;;;;;26.30;12.10;;;2.60;68.20;;;;;;2337396;54;21720;-73
2022/12/15 06:52:14;;;;;;;24.73;11.40;;;2.60;68.20;;;;;;2337847;53;20939;-74
2022/12/15 06:54:41;;;;;;;27.23;12.45;;;2.50;68.20;;;;;;2572659;53;20955;-74
2022/12/15 06:57:08;;;;;;;24.58;12.25;;;2.60;68.30;;;;;;2446513;53;21045;-75
2022/12/15 06:59:34;;;;;;;25.58;12.27;;;2.60;68.30;;;;;;2451686;53;20895;-76
2022/12/15 07:02:01;;;;;;;24.50;11.75;;;2.60;68.30;;;;;;2337677;54;20971;-72
2022/12/15 07:04:27;;;;;;;31.50;14.18;;;2.60;68.30;;;;;;2337459;54;20901;-71
2022/12/15 07:06:55;;;;;;;29.70;14.07;;;2.60;68.30;;;;;;2338308;54;21357;-75
2022/12/15 07:09:25;;;;;;;26.85;12.75;;;2.60;68.30;;;;;;2337793;54;20990;-75
2022/12/15 07:11:51;;;;;;;25.50;12.05;;;2.60;68.30;;;;;;2337920;54;20935;-77
2022/12/15 07:14:18;;;;;;;27.48;12.40;;;2.60;68.40;;;;;;2337488;54;20960;-76
2022/12/15 07:16:45;;;;;;;27.90;13.85;;;2.60;68.50;;;;;;2336872;54;21310;-74
2022/12/15 07:19:12;;;;;;;27.80;13.13;;;2.60;68.50;;;;;;2376874;53;20932;-73
2022/12/15 07:21:40;;;;;;;26.27;12.52;;;2.60;68.50;;;;;;2584854;52;20928;-74
2022/12/15 07:24:10;;;;;;;29.58;12.25;;;2.60;68.50;;;;;;2398840;53;20899;-76
2022/12/15 07:26:38;;;;;;;24.65;12.13;;;2.60;68.50;;;;;;2337534;54;20923;-73
2022/12/15 07:29:05;;;;;;;28.45;12.93;;;2.60;68.50;;;;;;2583180;53;20924;-76
2022/12/15 07:32:14;;;;;;;25.45;12.20;;;2.60;68.50;;;;;;2337373;54;20915;-72
2022/12/15 07:34:41;;;;;;;24.52;12.02;;;2.60;68.50;;;;;;2581673;53;20931;-73
2022/12/15 07:37:07;;;;;;;29.52;13.38;;;2.60;68.50;;;;;;2337637;54;20947;-73
2022/12/15 07:39:35;;;;;;;24.33;12.20;;;2.60;68.40;;;;;;2583132;53;21010;-73
2022/12/15 07:42:02;;;;;;;26.85;13.27;;;2.60;68.40;;;;;;2337580;54;20958;-74
2022/12/15 07:44:30;;;;;;;26.58;12.77;;;2.60;68.40;;;;;;2337110;54;21408;-75
2022/12/15 07:46:57;;;;;;;24.77;12.32;;;2.60;69.10;;;;;;2337760;54;20978;-74
2022/12/15 07:49:23;;;;;;;25.37;12.75;;;2.60;68.40;;;;;;2410896;53;20959;-73
2022/12/15 07:51:50;;;;;;;29.35;12.95;;;2.60;68.50;;;;;;2342985;53;21364;-75
2022/12/15 07:54:17;;;;;;;23.45;11.77;;;2.60;68.50;;;;;;2583350;52;20887;-73
2022/12/15 07:56:43;;;;;;;21.33;10.73;;;2.60;68.50;;;;;;2337369;54;21423;-73
2022/12/15 07:59:10;;;;;;;26.12;12.95;;;2.60;68.50;;;;;;2348664;53;20959;-73
2022/12/15 08:01:36;;;;;;;28.00;12.55;;;2.60;68.50;;;;;;2341774;53;21876;-74
2022/12/15 08:04:03;;;;;;;29.50;13.65;;;2.60;68.50;;;;;;2582261;53;20943;-72
2022/12/15 08:06:29;;;;;;;29.80;13.98;;;2.60;69.10;;;;;;2335837;54;20960;-75
2022/12/15 08:08:56;;;;;;;28.83;13.73;;;2.60;68.40;;;;;;2581494;53;20907;-72
2022/12/15 08:11:24;;;;;;;22.62;10.68;;;2.60;68.50;;;;;;2335776;54;20954;-76
2022/12/15 08:13:51;;;;;;;25.20;12.35;;;2.60;68.50;;;;;;2578337;53;20992;-74
2022/12/15 08:16:27;;;;;;;23.77;11.70;;;2.60;68.60;;;;;;2333545;54;20946;-75
2022/12/15 08:18:55;;;;;;;27.98;13.23;;;2.70;68.70;;;;;;2330659;54;20939;-75
2022/12/15 08:21:58;;;;;;;24.87;11.32;;;2.70;68.70;;;;;;2328115;54;21297;-75
2022/12/15 08:24:25;;;;;;;25.55;11.82;;;2.70;68.60;;;;;;2328125;54;20919;-74
2022/12/15 08:26:58;;;;;;;26.95;12.27;;;2.70;68.70;;;;;;2467886;53;21037;-71
2022/12/15 08:32:52;;;;;;;25.83;12.23;;;2.70;68.40;;;;;;2326846;54;20974;-73
2022/12/15 08:35:28;;;;;;;27.87;12.50;;;2.70;68.40;;;;;;2342081;53;22194;-75
2022/12/15 08:38:13;;;;;;;29.75;13.43;;;2.70;68.40;;;;;;2332005;53;20928;-74
2022/12/15 08:40:39;;;;;;;36.15;14.85;;;2.70;68.40;;;;;;2329467;53;21385;-75
2022/12/15 08:43:05;;;;;;;31.52;14.75;;;2.70;68.40;;;;;;2574584;53;21367;-73
2022/12/15 08:45:32;;;;;;;27.20;13.27;;;2.70;68.40;;;;;;2361124;53;21433;-73
2022/12/15 08:47:58;;;;;;;27.75;12.93;;;2.70;68.40;;;;;;2328577;54;21398;-74
2022/12/15 08:50:25;;;;;;;31.10;13.73;;;2.70;68.50;;;;;;2329373;54;21538;-75
2022/12/15 08:52:51;;;;;;;32.33;13.85;;;2.70;68.50;;;;;;2332680;54;21349;-73
2022/12/15 08:55:33;;;;;;;31.27;13.90;;;2.70;68.40;;;;;;2332625;54;21034;-74
2022/12/15 08:57:59;;;;;;;32.78;14.50;;;2.70;68.40;;;;;;2332659;54;21364;-75
2022/12/15 09:00:26;;;;;;;25.23;12.70;;;2.70;68.40;;;;;;2332845;54;20915;-72
2022/12/15 09:02:52;;;;;;;28.42;12.98;;;2.70;68.50;;;;;;2332221;54;20899;-74
2022/12/15 09:05:19;;;;;;;24.73;11.77;;;2.70;68.60;;;;;;2577633;53;20962;-73
2022/12/15 09:07:45;;;;;;;26.45;13.20;;;2.80;68.80;;;;;;2577542;53;21383;-72
2022/12/15 09:10:12;;;;;;;32.78;15.02;;;2.80;68.80;;;;;;2495920;52;21016;-76
2022/12/15 09:12:38;;;;;;;28.10;12.95;;;2.80;68.90;;;;;;2501825;52;20963;-76
2022/12/15 09:15:05;;;;;;;34.55;14.98;;;2.80;69.00;;;;;;2329930;54;20923;-74
2022/12/15 09:17:31;;;;;;;28.15;12.50;;;2.80;69.00;;;;;;2344124;53;21087;-75
2022/12/15 09:19:58;;;;;;;28.90;13.40;;;2.80;69.00;;;;;;2332390;54;20995;-72
2022/12/15 09:22:24;;;;;;;28.48;13.68;;;2.90;69.10;;;;;;2368759;53;20911;-73
2022/12/15 09:24:50;;;;;;;22.42;11.40;;;2.90;69.10;;;;;;2475876;53;21054;-73
2022/12/15 09:27:17;;;;;;;26.70;11.73;;;2.90;69.10;;;;;;2330668;54;21771;-74
2022/12/15 09:29:43;;;;;;;22.25;10.13;;;3.00;69.20;;;;;;2330046;54;21027;-72
2022/12/15 09:32:09;;;;;;;27.77;12.98;;;3.00;69.20;;;;;;2336778;53;20907;-71
2022/12/15 09:34:39;;;;;;;30.85;13.73;;;3.00;69.20;;;;;;2330135;54;21783;-74
2022/12/15 09:37:06;;;;;;;30.58;13.80;;;3.10;69.20;;;;;;2330127;54;21835;-74
2022/12/15 09:39:32;;;;;;;26.83;12.85;;;3.10;69.20;;;;;;2329802;54;21220;-76
2022/12/15 09:41:59;;;;;;;27.33;12.70;;;3.10;69.20;;;;;;2370824;53;20971;-73
2022/12/15 09:44:26;;;;;;;25.65;12.63;;;3.10;69.10;;;;;;2330216;54;20907;-73
2022/12/15 09:47:28;;;;;;;25.25;12.32;;;3.20;69.10;;;;;;2331021;54;20929;-75
2022/12/15 09:49:58;;;;;;;28.23;11.85;;;3.20;69.10;;;;;;2330982;54;20971;-75
2022/12/15 09:52:39;;;;;;;27.98;11.88;;;3.20;69.10;;;;;;2333745;54;20974;-76
2022/12/15 09:55:25;;;;;;;25.65;12.35;;;3.30;69.10;;;;;;2333929;54;21003;-74
2022/12/15 09:59:32;;;;;;;27.90;12.40;;;3.30;69.10;;;;;;2332990;54;20899;-72
2022/12/15 10:02:33;;;;;;;26.90;11.27;;;3.40;68.90;;;;;;2577774;53;20919;-73
2022/12/15 10:05:22;;;;;;;21.83;10.20;;;3.40;69.00;;;;;;2333613;54;20975;-75
2022/12/15 10:07:50;;;;;;;27.23;12.13;;;3.40;69.00;;;;;;2333330;54;21030;-72
2022/12/15 10:10:26;;;;;;;31.42;13.57;;;3.40;69.00;;;;;;2332763;54;20895;-75
2022/12/15 10:12:55;;;;;;;26.27;13.13;;;3.40;68.90;;;;;;2332695;54;21433;-73
2022/12/15 10:15:28;;;;;;;27.60;12.60;;;3.40;68.90;;;;;;2333693;53;20962;-74
2022/12/15 10:21:27;;;;;;;29.92;13.98;;;3.50;68.90;;;;;;2580702;53;20903;-72
2022/12/15 10:23:56;;;;;;;28.23;11.93;;;3.50;68.50;;;;;;2338828;54;21404;-73
2022/12/15 10:26:25;;;;;;;21.65;10.45;;;3.50;69.00;;;;;;2578768;53;20907;-73
2022/12/15 10:30:23;;;;;;;31.27;13.70;;;3.50;69.10;;;;;;2332839;54;21047;-76
2022/12/15 10:33:10;;;;;;;22.10;9.85;;;3.60;68.80;;;;;;2333300;54;21579;-74
2022/12/15 10:35:38;;;;;;;23.38;11.25;;;3.60;69.20;;;;;;2332652;54;20927;-73
2022/12/15 10:38:18;;;;;;;27.08;12.50;;;3.70;69.40;;;;;;2332188;54;20915;-73
2022/12/15 10:40:48;;;;;;;24.70;11.65;;;3.70;69.50;;;;;;2330302;54;20951;-76
2022/12/15 10:43:36;;;;;;;24.83;12.13;;;3.70;69.40;;;;;;2329543;54;20908;-75
2022/12/15 10:46:28;;;;;;;29.90;13.43;;;3.80;69.30;;;;;;2355507;53;21030;-75
2022/12/15 10:49:05;;;;;;;27.45;13.73;;;3.80;69.30;;;;;;2574052;53;20923;-76
2022/12/15 10:52:15;;;;;;;25.45;12.48;;;3.80;69.30;;;;;;2328282;54;21042;-73
2022/12/15 10:54:46;;;;;;;27.87;12.75;;;3.90;69.50;;;;;;2330019;54;20903;-76
2022/12/15 10:57:21;;;;;;;28.00;13.10;;;3.90;69.40;;;;;;2349232;53;20911;-73
2022/12/15 10:59:48;;;;;;;31.35;15.27;;;3.90;69.40;;;;;;2576033;53;21056;-75
2022/12/15 11:02:47;;;;;;;29.55;13.13;;;4.00;69.50;;;;;;2492952;52;20995;-72
2022/12/15 11:05:16;;;;;;;24.60;11.07;;;4.00;69.10;;;;;;2328304;54;21389;-74
2022/12/15 11:07:47;;;;;;;25.15;11.98;;;4.00;69.30;;;;;;2571157;53;21338;-73
2022/12/15 11:16:30;;;;;;;22.67;10.20;;;4.10;69.10;;;;;;2571717;53;21069;-76
2022/12/15 11:19:25;;;;;;;26.25;11.60;;;4.20;69.40;;;;;;2569684;53;21452;-74
2022/12/15 11:21:55;;;;;;;30.58;13.50;;;4.10;69.10;;;;;;2531430;53;21813;-73
2022/12/15 11:24:51;;;;;;;32.75;14.75;;;4.20;69.30;;;;;;2576330;53;21039;-75
2022/12/15 11:27:32;;;;;;;30.58;14.35;;;4.20;69.10;;;;;;2388291;53;20975;-74
2022/12/15 11:30:21;;;;;;;33.78;14.43;;;4.20;69.00;;;;;;2577117;53;20939;-73
2022/12/15 11:32:49;;;;;;;31.65;14.05;;;4.30;68.90;;;;;;2329856;54;21468;-74
2022/12/15 11:35:17;;;;;;;35.78;15.10;;;4.30;69.10;;;;;;2572994;53;21520;-74
2022/12/15 11:37:44;;;;;;;32.63;14.27;;;4.30;69.20;;;;;;2551761;53;1351735;-76
2022/12/15 11:40:38;;;;;;;29.90;13.90;;;4.30;69.40;;;;;;2332234;54;21320;-73
2022/12/15 11:44:42;;;;;;;30.62;13.45;;;4.30;69.30;;;;;;2406439;53;20943;-73
2022/12/15 11:48:18;;;;;;;28.60;11.98;;;4.40;69.40;;;;;;2573815;53;21436;-73
2022/12/15 11:51:28;;;;;;;28.95;12.93;;;4.40;68.70;;;;;;2329988;54;21427;-74
2022/12/15 11:54:15;;;;;;;28.73;13.25;;;4.50;68.90;;;;;;2331914;54;20923;-74
2022/12/15 11:56:52;;;;;;;32.58;13.40;;;4.50;68.90;;;;;;2332484;54;20911;-75
2022/12/15 12:03:15;;;;;;;28.00;12.68;;;4.50;68.90;;;;;;2444119;52;20983;-74
2022/12/15 12:06:18;;;;;;;23.48;10.48;;;4.50;68.60;;;;;;2576061;53;21059;-74
2022/12/15 12:09:13;;;;;;;22.75;10.98;;;4.50;68.50;;;;;;2331868;54;21488;-75
2022/12/15 12:11:42;;;;;;;27.17;12.27;;;4.50;68.70;;;;;;2331276;54;20990;-73
2022/12/15 12:15:19;;;;;;;29.87;13.00;;;4.50;68.90;;;;;;2331156;54;21508;-76
2022/12/15 12:17:48;;;;;;;28.42;12.68;;;4.50;68.40;;;;;;2578308;53;23020;-75
2022/12/15 12:20:20;;;;;;;27.83;12.85;;;4.60;68.90;;;;;;2567698;53;20919;-75
2022/12/15 12:23:14;;;;;;;24.80;12.02;;;4.60;68.90;;;;;;2347839;53;20899;-75
2022/12/15 12:25:44;;;;;;;25.25;11.75;;;4.60;68.70;;;;;;2334933;54;21566;-75
2022/12/15 12:28:16;;;;;;;27.80;13.45;;;4.60;69.00;;;;;;2580688;53;20995;-74
2022/12/15 12:30:45;;;;;;;34.42;15.38;;;4.60;68.90;;;;;;2336070;54;21429;-73
2022/12/15 12:33:32;;;;;;;31.40;14.60;;;4.60;68.90;;;;;;2335595;54;20922;-74
2022/12/15 12:36:13;;;;;;;29.00;13.65;;;4.60;68.70;;;;;;2580254;53;20975;-75
2022/12/15 12:38:45;;;;;;;31.15;14.30;;;4.60;68.60;;;;;;2336253;54;21525;-73
2022/12/15 12:44:46;;;;;;;35.92;15.80;;;4.70;68.70;;;;;;2336182;54;21274;-77
2022/12/15 12:47:27;;;;;;;25.85;12.55;;;4.60;68.40;;;;;;2333100;54;20955;-75
2022/12/15 12:49:57;;;;;;;28.55;13.50;;;4.60;68.10;;;;;;2331886;54;20947;-76
2022/12/15 12:52:34;;;;;;;33.22;15.52;;;4.60;68.20;;;;;;2359789;54;21011;-74
2022/12/15 12:55:22;;;;;;;32.53;15.27;;;4.60;68.20;;;;;;2331092;54;20955;-73
2022/12/15 12:57:48;;;;;;;32.40;15.38;;;4.50;68.10;;;;;;2328747;54;21396;-74
2022/12/15 13:00:27;;;;;;;32.95;15.13;;;4.50;68.20;;;;;;2327405;54;20947;-75
2022/12/15 13:03:39;;;;;;;36.60;16.50;;;4.50;68.00;;;;;;2327404;54;20919;-74
2022/12/15 13:06:19;;;;;;;34.85;15.38;;;4.50;67.70;;;;;;2323542;54;21222;-74
2022/12/15 13:08:48;;;;;;;27.27;13.27;;;4.50;67.80;;;;;;2334044;53;20916;-76
2022/12/15 13:13:37;;;;;;;34.65;16.83;;;4.50;68.00;;;;;;2321509;54;21415;-75
2022/12/15 13:16:24;;;;;;;23.77;11.52;;;4.40;67.50;;;;;;2322151;54;20971;-75
2022/12/15 13:20:42;;;;;;;28.98;13.48;;;4.40;67.90;;;;;;2325049;54;22084;-74
2022/12/15 13:25:00;;;;;;;27.75;12.48;;;4.40;67.40;;;;;;2398122;53;20939;-74
2022/12/15 13:27:36;;;;;;;26.40;11.90;;;4.40;67.50;;;;;;2328993;54;21214;-75
2022/12/15 13:30:20;;;;;;;25.52;11.85;;;4.40;68.10;;;;;;2326720;54;20962;-74
2022/12/15 13:32:50;;;;;;;30.30;13.70;;;4.40;68.10;;;;;;2444498;53;21368;-74
2022/12/15 13:35:30;;;;;;;29.92;14.43;;;4.30;68.30;;;;;;2327674;54;21235;-75
2022/12/15 13:37:58;;;;;;;33.40;16.05;;;4.30;68.10;;;;;;2313844;54;20947;-76
2022/12/15 13:42:22;;;;;;;36.72;16.52;;;4.30;68.30;;;;;;2572486;53;20983;-76
2022/12/15 13:45:09;;;;;;;30.33;13.90;;;4.30;67.60;;;;;;2577112;53;21256;-74
2022/12/15 13:47:35;;;;;;;36.55;15.77;;;4.30;67.90;;;;;;2332256;54;20915;-76
2022/12/15 13:51:47;;;;;;;34.35;15.30;;;4.30;68.00;;;;;;2332242;54;21416;-75
2022/12/15 13:54:22;;;;;;;27.20;13.13;;;4.20;67.40;;;;;;2331865;54;20919;-73
2022/12/15 13:57:04;;;;;;;28.65;13.65;;;4.20;67.90;;;;;;2387887;53;21351;-74
2022/12/15 13:59:52;;;;;;;33.28;13.93;;;4.20;67.90;;;;;;2331058;54;20934;-74
2022/12/15 14:02:56;;;;;;;35.95;14.95;;;4.20;68.10;;;;;;2333680;54;21285;-75
2022/12/15 14:05:28;;;;;;;32.67;15.18;;;4.20;68.00;;;;;;2331930;54;20972;-74
2022/12/15 14:07:59;;;;;;;30.95;15.30;;;4.10;68.10;;;;;;2573999;53;20908;-76
2022/12/15 14:11:02;;;;;;;33.17;16.75;;;4.10;68.20;;;;;;2327584;54;21438;-76
2022/12/15 14:13:33;;;;;;;33.25;16.05;;;4.10;68.10;;;;;;2325957;54;20903;-74
2022/12/15 14:16:06;;;;;;;33.13;15.48;;;4.10;68.30;;;;;;2328884;54;20971;-74
2022/12/15 14:18:34;;;;;;;28.98;13.07;;;4.10;68.30;;;;;;2327117;54;21275;-76
2022/12/15 14:21:03;;;;;;;33.83;15.15;;;4.10;68.40;;;;;;2541776;53;21604;-75
2022/12/15 14:23:42;;;;;;;34.85;15.23;;;4.10;68.50;;;;;;2571522;53;20947;-74
2022/12/15 14:26:12;;;;;;;33.53;15.45;;;4.10;68.40;;;;;;2436058;53;21539;-73
2022/12/15 14:28:40;;;;;;;36.05;15.73;;;4.10;68.50;;;;;;2332354;54;21330;-74
2022/12/15 14:31:17;;;;;;;33.22;16.17;;;4.10;68.50;;;;;;2331866;54;21380;-73
2022/12/15 14:33:44;;;;;;;34.38;16.95;;;4.10;68.50;;;;;;2331060;54;20923;-73
2022/12/15 14:36:13;;;;;;;39.63;18.08;;;4.10;68.60;;;;;;2332163;54;21388;-73
2022/12/15 14:38:45;;;;;;;41.08;17.60;;;4.10;68.60;;;;;;2332487;54;21007;-73
2022/12/15 14:43:49;;;;;;;43.45;19.30;;;4.10;68.70;;;;;;2331823;54;21473;-73
2022/12/15 14:46:20;;;;;;;30.17;14.20;;;4.10;68.10;;;;;;2518439;53;21439;-74
2022/12/15 14:49:01;;;;;;;39.08;16.95;;;4.10;68.50;;;;;;2571732;53;21343;-76
2022/12/15 14:51:29;;;;;;;25.27;11.43;;;4.10;68.60;;;;;;2324021;54;20998;-75
2022/12/15 14:53:55;;;;;;;29.23;14.38;;;4.10;68.50;;;;;;2323135;54;21889;-74
2022/12/15 14:56:26;;;;;;;36.00;16.65;;;4.10;68.50;;;;;;2320425;54;20895;-73
2022/12/15 14:59:02;;;;;;;31.12;16.62;;;4.10;68.60;;;;;;2305187;55;20931;-75
2022/12/15 15:01:50;;;;;;;35.22;16.52;;;4.10;68.60;;;;;;2328108;53;21000;-75
2022/12/15 15:04:25;;;;;;;32.10;15.35;;;4.10;68.40;;;;;;2315209;53;20999;-76
2022/12/15 15:06:55;;;;;;;31.75;15.65;;;4.10;68.60;;;;;;2323752;53;21300;-74
2022/12/15 15:09:26;;;;;;;29.75;15.10;;;4.10;68.50;;;;;;2319847;54;21518;-73
2022/12/15 15:11:54;;;;;;;31.40;14.93;;;4.10;68.50;;;;;;2318531;54;21198;-76
2022/12/15 15:14:24;;;;;;;32.47;15.30;;;4.10;68.70;;;;;;2488621;53;21983;-73
2022/12/15 15:17:05;;;;;;;32.70;16.27;;;4.10;68.70;;;;;;2326791;54;21728;-73
2022/12/15 15:19:31;;;;;;;28.95;14.80;;;4.10;68.60;;;;;;2572677;53;21563;-73
2022/12/15 15:21:59;;;;;;;31.45;15.32;;;4.10;68.70;;;;;;2328010;54;20903;-75
2022/12/15 15:24:38;;;;;;;37.75;17.35;;;4.10;68.80;;;;;;2569220;53;20939;-75
2022/12/15 15:27:25;;;;;;;30.08;15.75;;;4.10;68.90;;;;;;2403083;53;22655;-74
2022/12/15 15:29:51;;;;;;;29.27;14.52;;;4.10;68.90;;;;;;2459557;53;20947;-73
2022/12/15 15:32:21;;;;;;;31.55;15.38;;;4.10;69.00;;;;;;2563403;53;21448;-76
2022/12/15 15:34:48;;;;;;;27.77;14.05;;;4.10;69.00;;;;;;2321805;54;21431;-73
2022/12/15 15:37:22;;;;;;;28.15;13.93;;;4.10;69.10;;;;;;2321352;54;21369;-73
2022/12/15 15:39:52;;;;;;;27.75;15.07;;;4.10;69.00;;;;;;2319607;54;20964;-76
2022/12/15 15:42:19;;;;;;;32.38;15.55;;;4.20;69.10;;;;;;2325160;53;21019;-75
2022/12/15 15:44:45;;;;;;;28.25;14.00;;;4.20;69.10;;;;;;2558786;53;21421;-75
2022/12/15 15:47:23;;;;;;;29.75;14.40;;;4.20;69.10;;;;;;2558600;53;20999;-73
2022/12/15 15:49:50;;;;;;;27.33;14.00;;;4.20;68.90;;;;;;2320060;54;20951;-74
2022/12/15 15:52:16;;;;;;;29.02;13.68;;;4.20;69.00;;;;;;2324084;54;20920;-75
2022/12/15 15:54:43;;;;;;;32.00;15.55;;;4.20;69.00;;;;;;2317016;54;20918;-76
2022/12/15 15:57:14;;;;;;;32.15;15.25;;;4.20;69.00;;;;;;2536859;53;21032;-73
2022/12/15 15:59:42;;;;;;;26.85;13.57;;;4.20;68.90;;;;;;2323559;54;22019;-73
2022/12/15 16:02:10;;;;;;;30.23;14.25;;;4.20;68.90;;;;;;2319582;54;21041;-73
2022/12/15 16:04:40;;;;;;;28.10;14.45;;;4.20;69.00;;;;;;2501955;53;21515;-74
2022/12/15 16:07:21;;;;;;;30.92;14.15;;;4.20;69.00;;;;;;2325849;54;21369;-76
2022/12/15 16:09:47;;;;;;;25.17;12.52;;;4.20;69.00;;;;;;2324868;54;21483;-74
2022/12/15 16:12:35;;;;;;;25.65;12.88;;;4.20;69.10;;;;;;2396563;53;20912;-75
2022/12/15 16:15:01;;;;;;;25.50;12.32;;;4.20;68.90;;;;;;2328454;54;21039;-73
2022/12/15 16:17:28;;;;;;;28.12;13.77;;;4.20;69.00;;;;;;2328983;54;21334;-76
2022/12/15 16:19:55;;;;;;;30.17;14.60;;;4.20;69.00;;;;;;2325826;54;21764;-74
2022/12/15 16:22:21;;;;;;;28.92;15.25;;;4.20;69.00;;;;;;2327059;54;21642;-73
2022/12/15 16:24:47;;;;;;;31.60;15.45;;;4.20;69.10;;;;;;2390582;53;20923;-74